Time;durP1;ratioP1;P1;durP2;ratioP2;P2;SDS_P1;SDS_P2;PMS_P1;PMS_P2;Temp;Humidity;BMP_temperature;BMP_pressure;BME280_temperature;BME280_humidity;BME280_pressure;Samples;Min_cycle;Max_cycle;Signal;HPM_P1;HPM_P2
2023/05/31 00:01:08;;;;;;;5.07;2.60;;;;;;;;;;5030580;28;20231;-67
2023/05/31 00:03:40;;;;;;;5.88;2.80;;;;;;;;;;5032534;28;20223;-66
2023/05/31 00:06:07;;;;;;;3.72;2.53;;;;;;;;;;5033966;28;20230;-66
2023/05/31 00:08:35;;;;;;;4.97;2.60;;;;;;;;;;5031447;28;20200;-66
2023/05/31 00:11:02;;;;;;;6.68;2.50;;;;;;;;;;5034913;28;20204;-66
2023/05/31 00:13:30;;;;;;;4.22;2.15;;;;;;;;;;5032710;28;20342;-67
2023/05/31 00:15:57;;;;;;;4.03;2.22;;;;;;;;;;5036658;28;20212;-67
2023/05/31 00:18:25;;;;;;;5.22;2.65;;;;;;;;;;5034731;28;20200;-66
2023/05/31 00:20:52;;;;;;;6.35;2.75;;;;;;;;;;5034027;28;20208;-66
2023/05/31 00:23:19;;;;;;;3.70;2.50;;;;;;;;;;5034143;28;20240;-66
2023/05/31 00:25:46;;;;;;;6.00;2.47;;;;;;;;;;5034399;28;20204;-67
2023/05/31 00:28:14;;;;;;;6.15;2.60;;;;;;;;;;5034036;28;20212;-67
2023/05/31 00:30:43;;;;;;;5.30;2.63;;;;;;;;;;5034291;28;20226;-66
2023/05/31 00:33:10;;;;;;;5.32;2.45;;;;;;;;;;5035096;28;20257;-67
2023/05/31 00:35:37;;;;;;;3.70;2.67;;;;;;;;;;5034421;28;20299;-66
2023/05/31 00:38:06;;;;;;;5.53;2.33;;;;;;;;;;5033997;28;20208;-67
2023/05/31 00:40:33;;;;;;;5.40;2.40;;;;;;;;;;5034002;28;20223;-66
2023/05/31 00:43:00;;;;;;;7.20;2.80;;;;;;;;;;5033469;28;20196;-66
2023/05/31 00:45:28;;;;;;;4.85;2.25;;;;;;;;;;5033790;28;20216;-66
2023/05/31 00:47:57;;;;;;;5.22;2.50;;;;;;;;;;5032130;28;20207;-67
2023/05/31 00:50:24;;;;;;;5.57;2.42;;;;;;;;;;5033199;28;20201;-67
2023/05/31 00:52:53;;;;;;;4.22;2.50;;;;;;;;;;5028923;28;20211;-67
2023/05/31 00:55:20;;;;;;;5.90;2.90;;;;;;;;;;5032518;28;20204;-67
2023/05/31 00:57:48;;;;;;;5.32;2.58;;;;;;;;;;5030227;28;20219;-66
2023/05/31 01:00:16;;;;;;;5.95;2.45;;;;;;;;;;5031212;28;20208;-67
2023/05/31 01:02:43;;;;;;;5.95;2.45;;;;;;;;;;5031011;28;20236;-67
2023/05/31 01:05:12;;;;;;;5.53;2.60;;;;;;;;;;5033211;28;20238;-67
2023/05/31 01:07:39;;;;;;;5.88;2.38;;;;;;;;;;5033457;28;20227;-67
2023/05/31 01:10:07;;;;;;;4.72;2.30;;;;;;;;;;5032906;28;20215;-67
2023/05/31 01:12:39;;;;;;;7.22;3.10;;;;;;;;;;5033134;28;20212;-67
2023/05/31 01:15:10;;;;;;;4.30;2.50;;;;;;;;;;5032077;28;20204;-67
2023/05/31 01:17:40;;;;;;;7.13;2.83;;;;;;;;;;5033133;28;20204;-67
2023/05/31 01:20:10;;;;;;;7.28;2.63;;;;;;;;;;5033408;28;20204;-67
2023/05/31 01:22:43;;;;;;;4.72;2.58;;;;;;;;;;5028673;28;20232;-67
2023/05/31 01:25:15;;;;;;;3.88;2.20;;;;;;;;;;5030656;28;20224;-67
2023/05/31 01:27:45;;;;;;;5.57;2.30;;;;;;;;;;5029694;28;20208;-67
2023/05/31 01:30:13;;;;;;;5.85;2.58;;;;;;;;;;5032827;28;20196;-67
2023/05/31 01:32:41;;;;;;;6.95;2.90;;;;;;;;;;5031120;28;20263;-67
2023/05/31 01:35:08;;;;;;;5.53;2.63;;;;;;;;;;5032730;28;20234;-67
2023/05/31 01:37:35;;;;;;;4.55;2.45;;;;;;;;;;5033195;28;20212;-67
2023/05/31 01:40:03;;;;;;;4.50;2.55;;;;;;;;;;5032981;28;20200;-67
2023/05/31 01:42:31;;;;;;;4.88;2.60;;;;;;;;;;5033555;28;20215;-67
2023/05/31 01:45:00;;;;;;;4.75;2.92;;;;;;;;;;5031934;28;20266;-67
2023/05/31 01:47:27;;;;;;;5.82;2.80;;;;;;;;;;5031139;28;20212;-67
2023/05/31 01:49:55;;;;;;;6.32;2.90;;;;;;;;;;5032938;28;20203;-67
2023/05/31 01:52:22;;;;;;;5.95;2.67;;;;;;;;;;5032601;28;20211;-67
2023/05/31 01:54:50;;;;;;;5.97;2.90;;;;;;;;;;5032905;28;20212;-67
2023/05/31 01:57:18;;;;;;;6.72;2.60;;;;;;;;;;5032252;28;20216;-67
2023/05/31 01:59:45;;;;;;;3.65;2.30;;;;;;;;;;5031605;28;20212;-67
2023/05/31 02:02:14;;;;;;;4.85;2.70;;;;;;;;;;5032175;28;20208;-67
2023/05/31 02:04:41;;;;;;;6.20;2.90;;;;;;;;;;5031990;28;20216;-67
2023/05/31 02:07:09;;;;;;;6.68;3.05;;;;;;;;;;5032265;28;20211;-67
2023/05/31 02:09:36;;;;;;;4.38;2.53;;;;;;;;;;5032367;28;20208;-67
2023/05/31 02:12:04;;;;;;;6.05;2.90;;;;;;;;;;5031840;28;20196;-67
2023/05/31 02:14:31;;;;;;;7.18;2.60;;;;;;;;;;5033062;28;20204;-67
2023/05/31 02:16:58;;;;;;;4.45;2.72;;;;;;;;;;5031891;28;20204;-67
2023/05/31 02:19:28;;;;;;;4.32;2.50;;;;;;;;;;5027688;28;20204;-67
2023/05/31 02:21:55;;;;;;;5.65;2.80;;;;;;;;;;5031115;28;20200;-67
2023/05/31 02:24:23;;;;;;;5.38;2.42;;;;;;;;;;5030880;28;20243;-67
2023/05/31 02:26:50;;;;;;;7.40;2.85;;;;;;;;;;5028288;28;20203;-67
2023/05/31 02:29:17;;;;;;;5.13;2.75;;;;;;;;;;5032229;28;20204;-67
2023/05/31 02:31:44;;;;;;;7.43;2.88;;;;;;;;;;5031379;28;20204;-67
2023/05/31 02:34:12;;;;;;;5.47;2.90;;;;;;;;;;5030910;28;20208;-67
2023/05/31 02:36:40;;;;;;;6.43;2.60;;;;;;;;;;5031792;28;20291;-67
2023/05/31 02:39:07;;;;;;;5.82;2.78;;;;;;;;;;5031216;28;20203;-67
2023/05/31 02:41:34;;;;;;;4.78;2.78;;;;;;;;;;5031530;28;20218;-67
2023/05/31 02:44:02;;;;;;;4.72;2.63;;;;;;;;;;5031680;28;20208;-67
2023/05/31 02:46:29;;;;;;;5.63;2.75;;;;;;;;;;5030983;28;20271;-67
2023/05/31 02:48:56;;;;;;;4.30;2.58;;;;;;;;;;5032086;28;20219;-67
2023/05/31 02:51:23;;;;;;;5.85;2.60;;;;;;;;;;5030314;28;20214;-67
2023/05/31 02:53:52;;;;;;;4.65;2.40;;;;;;;;;;5030711;28;20208;-67
2023/05/31 02:56:19;;;;;;;4.85;2.60;;;;;;;;;;5031698;28;20204;-67
2023/05/31 02:58:47;;;;;;;5.55;2.80;;;;;;;;;;5031292;28;20294;-67
2023/05/31 03:01:14;;;;;;;7.13;3.10;;;;;;;;;;5027517;28;20208;-67
2023/05/31 03:03:42;;;;;;;7.70;2.95;;;;;;;;;;5030837;28;20216;-67
2023/05/31 03:06:09;;;;;;;5.97;2.63;;;;;;;;;;5028913;28;20232;-66
2023/05/31 03:08:36;;;;;;;6.47;3.00;;;;;;;;;;5029447;28;20215;-67
2023/05/31 03:11:04;;;;;;;6.25;2.95;;;;;;;;;;5031589;28;20216;-66
2023/05/31 03:13:31;;;;;;;3.63;2.47;;;;;;;;;;5031032;28;20303;-67
2023/05/31 03:15:59;;;;;;;4.40;2.40;;;;;;;;;;5031248;28;20200;-65
2023/05/31 03:18:26;;;;;;;5.80;2.97;;;;;;;;;;5031787;28;20204;-67
2023/05/31 03:20:54;;;;;;;4.50;2.65;;;;;;;;;;5031387;28;20208;-68
2023/05/31 03:23:21;;;;;;;5.18;2.67;;;;;;;;;;5034240;28;20243;-67
2023/05/31 03:25:49;;;;;;;6.38;2.78;;;;;;;;;;5030900;28;20231;-68
2023/05/31 03:28:17;;;;;;;5.97;2.47;;;;;;;;;;5030251;28;20202;-66
2023/05/31 03:30:45;;;;;;;5.50;2.92;;;;;;;;;;5031282;28;20200;-66
2023/05/31 03:33:12;;;;;;;5.85;3.17;;;;;;;;;;5031605;28;20215;-66
2023/05/31 03:35:39;;;;;;;6.10;2.78;;;;;;;;;;5030994;28;20200;-67
2023/05/31 03:38:06;;;;;;;8.20;3.05;;;;;;;;;;5032892;28;20208;-67
2023/05/31 03:40:33;;;;;;;6.15;2.70;;;;;;;;;;5035899;28;20207;-67
2023/05/31 03:43:00;;;;;;;4.57;2.75;;;;;;;;;;5034968;28;20208;-66
2023/05/31 03:45:29;;;;;;;5.60;2.78;;;;;;;;;;5033966;28;20232;-66
2023/05/31 03:47:56;;;;;;;6.05;2.60;;;;;;;;;;5033994;28;20200;-66
2023/05/31 03:50:23;;;;;;;6.95;2.80;;;;;;;;;;5033116;28;20214;-66
2023/05/31 03:52:50;;;;;;;4.82;2.70;;;;;;;;;;5034613;28;20215;-67
2023/05/31 03:55:17;;;;;;;4.63;2.70;;;;;;;;;;5033258;28;20201;-67
2023/05/31 03:57:45;;;;;;;6.18;2.78;;;;;;;;;;5034133;28;20211;-67
2023/05/31 04:00:12;;;;;;;5.13;2.80;;;;;;;;;;5033053;28;20484;-67
2023/05/31 04:02:42;;;;;;;4.93;3.15;;;;;;;;;;5034168;28;20200;-67
2023/05/31 04:05:09;;;;;;;5.32;2.40;;;;;;;;;;5033742;28;20310;-67
2023/05/31 04:07:36;;;;;;;3.53;2.55;;;;;;;;;;5034363;28;20219;-67
2023/05/31 04:10:04;;;;;;;2.97;2.58;;;;;;;;;;5033428;28;20215;-68
2023/05/31 04:12:31;;;;;;;3.90;2.63;;;;;;;;;;5034192;28;20204;-67
2023/05/31 04:14:58;;;;;;;4.82;2.78;;;;;;;;;;5032419;28;20208;-68
2023/05/31 04:17:25;;;;;;;6.40;2.78;;;;;;;;;;5033437;28;20212;-68
2023/05/31 04:19:53;;;;;;;5.93;2.92;;;;;;;;;;5033277;28;20215;-69
2023/05/31 04:22:22;;;;;;;5.82;2.83;;;;;;;;;;5031497;28;20204;-67
2023/05/31 04:24:49;;;;;;;5.20;3.00;;;;;;;;;;5032083;28;20268;-67
2023/05/31 04:27:18;;;;;;;4.93;2.30;;;;;;;;;;5034082;28;20204;-70
2023/05/31 04:29:46;;;;;;;4.25;2.63;;;;;;;;;;5030885;28;20200;-69
2023/05/31 04:32:14;;;;;;;5.47;2.78;;;;;;;;;;5033006;28;20208;-70
2023/05/31 04:34:42;;;;;;;6.07;2.92;;;;;;;;;;5030009;28;20212;-67
2023/05/31 04:37:11;;;;;;;4.63;2.63;;;;;;;;;;5033912;28;20212;-67
2023/05/31 04:39:38;;;;;;;4.00;2.72;;;;;;;;;;5033835;28;20196;-67
2023/05/31 04:42:05;;;;;;;4.70;2.75;;;;;;;;;;5033939;28;20219;-67
2023/05/31 04:44:32;;;;;;;3.95;2.65;;;;;;;;;;5033221;28;20208;-68
2023/05/31 04:47:00;;;;;;;6.13;2.72;;;;;;;;;;5027724;28;20224;-67
2023/05/31 04:49:27;;;;;;;5.57;3.30;;;;;;;;;;5033561;28;20212;-65
2023/05/31 04:51:55;;;;;;;4.72;2.92;;;;;;;;;;5033942;28;20208;-65
2023/05/31 04:54:24;;;;;;;5.13;3.08;;;;;;;;;;5033536;28;20200;-65
2023/05/31 04:56:51;;;;;;;7.72;2.85;;;;;;;;;;5033998;28;20291;-67
2023/05/31 04:59:20;;;;;;;5.13;2.88;;;;;;;;;;5032348;28;20211;-65
2023/05/31 05:01:47;;;;;;;6.88;2.97;;;;;;;;;;5032375;28;20294;-65
2023/05/31 05:04:14;;;;;;;6.72;3.42;;;;;;;;;;5033332;28;20212;-66
2023/05/31 05:06:42;;;;;;;9.90;3.50;;;;;;;;;;5030957;28;20227;-65
2023/05/31 05:09:09;;;;;;;4.13;2.50;;;;;;;;;;5032511;28;20222;-66
2023/05/31 05:11:38;;;;;;;5.60;2.85;;;;;;;;;;5032385;28;20204;-65
2023/05/31 05:14:05;;;;;;;5.72;2.63;;;;;;;;;;5031728;28;20208;-65
2023/05/31 05:16:32;;;;;;;6.78;3.03;;;;;;;;;;5032912;28;20205;-65
2023/05/31 05:18:59;;;;;;;6.50;3.15;;;;;;;;;;5033352;28;20211;-64
2023/05/31 05:21:28;;;;;;;5.40;2.80;;;;;;;;;;5033480;28;20212;-64
2023/05/31 05:23:55;;;;;;;6.53;3.13;;;;;;;;;;5032680;28;20246;-65
2023/05/31 05:26:23;;;;;;;7.60;2.40;;;;;;;;;;5032572;28;20223;-65
2023/05/31 05:28:51;;;;;;;4.22;2.38;;;;;;;;;;5033170;28;20211;-67
2023/05/31 05:31:18;;;;;;;4.88;2.80;;;;;;;;;;5031717;28;20295;-65
2023/05/31 05:33:45;;;;;;;6.90;3.00;;;;;;;;;;5033080;28;20208;-66
2023/05/31 05:36:12;;;;;;;4.65;3.10;;;;;;;;;;5032730;28;20208;-65
2023/05/31 05:38:40;;;;;;;4.95;2.53;;;;;;;;;;5032586;28;20204;-65
2023/05/31 05:41:10;;;;;;;3.92;2.50;;;;;;;;;;5032097;28;20196;-66
2023/05/31 05:43:38;;;;;;;5.63;2.58;;;;;;;;;;5032566;28;20298;-65
2023/05/31 05:46:06;;;;;;;5.13;2.63;;;;;;;;;;5031972;28;20220;-65
2023/05/31 05:48:33;;;;;;;5.50;2.90;;;;;;;;;;5030433;28;20196;-66
2023/05/31 05:51:01;;;;;;;6.07;2.88;;;;;;;;;;5031919;28;20219;-64
2023/05/31 05:53:28;;;;;;;5.75;2.58;;;;;;;;;;5031026;28;20200;-64
2023/05/31 05:55:55;;;;;;;4.20;2.55;;;;;;;;;;5029357;28;20219;-64
2023/05/31 05:58:23;;;;;;;4.38;2.70;;;;;;;;;;5030951;28;20212;-64
2023/05/31 06:00:50;;;;;;;5.60;2.88;;;;;;;;;;5032031;28;20216;-66
2023/05/31 06:03:19;;;;;;;7.80;2.72;;;;;;;;;;5031846;28;20204;-64
2023/05/31 06:05:46;;;;;;;5.03;2.28;;;;;;;;;;5032369;28;20259;-64
2023/05/31 06:08:13;;;;;;;4.35;2.53;;;;;;;;;;5032213;28;20219;-64
2023/05/31 06:10:41;;;;;;;6.50;3.10;;;;;;;;;;5031915;28;20208;-64
2023/05/31 06:13:08;;;;;;;4.63;2.67;;;;;;;;;;5031046;28;20196;-64
2023/05/31 06:15:35;;;;;;;5.45;2.88;;;;;;;;;;5032293;28;20215;-63
2023/05/31 06:18:02;;;;;;;4.18;2.38;;;;;;;;;;5032448;28;20232;-63
2023/05/31 06:20:31;;;;;;;5.07;2.70;;;;;;;;;;5031936;28;20223;-65
2023/05/31 06:22:58;;;;;;;3.80;2.58;;;;;;;;;;5031400;28;20232;-65
2023/05/31 06:25:26;;;;;;;5.28;2.88;;;;;;;;;;5031492;28;20211;-64
2023/05/31 06:27:53;;;;;;;4.63;2.53;;;;;;;;;;5031383;28;20204;-65
2023/05/31 06:30:21;;;;;;;4.82;2.72;;;;;;;;;;5028397;28;20287;-64
2023/05/31 06:32:48;;;;;;;5.70;2.85;;;;;;;;;;5031196;28;20208;-64
2023/05/31 06:35:16;;;;;;;5.13;2.47;;;;;;;;;;5030837;28;20204;-64
2023/05/31 06:37:46;;;;;;;9.15;2.80;;;;;;;;;;5031572;28;20208;-64
2023/05/31 06:40:13;;;;;;;3.80;2.72;;;;;;;;;;5031094;28;20200;-64
2023/05/31 06:42:40;;;;;;;5.60;2.78;;;;;;;;;;5031673;28;20208;-65
2023/05/31 06:45:08;;;;;;;4.00;2.28;;;;;;;;;;5031457;28;20203;-63
2023/05/31 06:47:35;;;;;;;3.85;2.50;;;;;;;;;;5031461;28;20228;-64
2023/05/31 06:50:03;;;;;;;3.58;2.30;;;;;;;;;;5031166;28;20211;-64
2023/05/31 06:52:30;;;;;;;5.03;2.55;;;;;;;;;;5030864;28;20216;-65
2023/05/31 06:54:58;;;;;;;4.05;2.50;;;;;;;;;;5031612;28;20211;-65
2023/05/31 06:57:25;;;;;;;5.30;2.50;;;;;;;;;;5031390;28;20211;-63
2023/05/31 06:59:52;;;;;;;4.03;2.67;;;;;;;;;;5028093;28;20200;-63
2023/05/31 07:02:20;;;;;;;5.55;2.72;;;;;;;;;;5031609;28;20208;-63
2023/05/31 07:04:47;;;;;;;5.18;2.63;;;;;;;;;;5031277;28;20200;-65
2023/05/31 07:07:14;;;;;;;7.15;2.50;;;;;;;;;;5030582;28;20231;-63
2023/05/31 07:09:41;;;;;;;6.38;2.28;;;;;;;;;;5030186;28;20204;-64
2023/05/31 07:12:10;;;;;;;4.25;2.53;;;;;;;;;;5031483;28;20200;-63
2023/05/31 07:14:38;;;;;;;6.53;2.67;;;;;;;;;;5034985;28;20204;-63
2023/05/31 07:17:05;;;;;;;5.82;2.60;;;;;;;;;;5035754;28;20389;-65
2023/05/31 07:19:32;;;;;;;4.97;2.42;;;;;;;;;;5035542;28;20211;-63
2023/05/31 07:21:59;;;;;;;3.80;2.25;;;;;;;;;;5035400;28;20212;-65
2023/05/31 07:24:26;;;;;;;6.20;2.33;;;;;;;;;;5034490;28;20236;-65
2023/05/31 07:26:54;;;;;;;6.40;2.90;;;;;;;;;;5034318;28;20231;-64
2023/05/31 07:29:22;;;;;;;4.53;2.53;;;;;;;;;;5034577;28;20207;-63
2023/05/31 07:31:49;;;;;;;4.50;2.80;;;;;;;;;;5034531;28;20238;-63
2023/05/31 07:34:16;;;;;;;6.30;2.10;;;;;;;;;;5035134;28;20211;-63
2023/05/31 07:36:43;;;;;;;2.80;2.20;;;;;;;;;;5035311;28;20211;-64
2023/05/31 07:39:11;;;;;;;5.18;2.63;;;;;;;;;;5035274;28;20207;-64
2023/05/31 07:41:38;;;;;;;4.53;2.30;;;;;;;;;;5034866;28;20265;-64
2023/05/31 07:44:06;;;;;;;4.85;2.70;;;;;;;;;;5035419;28;20216;-64
2023/05/31 07:46:35;;;;;;;3.83;2.42;;;;;;;;;;5033484;28;20310;-63
2023/05/31 07:49:03;;;;;;;3.90;2.28;;;;;;;;;;5034961;28;20299;-64
2023/05/31 07:51:30;;;;;;;4.18;2.20;;;;;;;;;;5034651;28;20212;-64
2023/05/31 07:53:57;;;;;;;5.90;2.20;;;;;;;;;;5034322;28;20212;-63
2023/05/31 07:56:25;;;;;;;3.80;2.30;;;;;;;;;;5033734;28;20197;-63
2023/05/31 07:58:52;;;;;;;2.10;1.85;;;;;;;;;;5033561;28;20208;-64
2023/05/31 08:01:19;;;;;;;4.75;2.30;;;;;;;;;;5034365;28;20200;-63
2023/05/31 08:03:49;;;;;;;7.18;2.42;;;;;;;;;;5032795;28;20208;-64
2023/05/31 08:06:16;;;;;;;3.72;2.13;;;;;;;;;;5034473;28;20240;-64
2023/05/31 08:08:44;;;;;;;4.80;2.33;;;;;;;;;;5034817;28;20208;-64
2023/05/31 08:11:11;;;;;;;5.93;2.60;;;;;;;;;;5033894;28;20205;-66
2023/05/31 08:13:39;;;;;;;3.75;2.35;;;;;;;;;;5034490;28;20206;-63
2023/05/31 08:16:07;;;;;;;3.55;2.20;;;;;;;;;;5034383;28;20212;-65
2023/05/31 08:18:34;;;;;;;4.30;2.00;;;;;;;;;;5034354;28;20204;-65
2023/05/31 08:21:04;;;;;;;5.88;1.90;;;;;;;;;;5033717;28;20200;-64
2023/05/31 08:23:31;;;;;;;3.65;2.17;;;;;;;;;;5033643;28;20313;-64
2023/05/31 08:25:58;;;;;;;3.72;2.38;;;;;;;;;;5033961;28;20204;-65
2023/05/31 08:28:25;;;;;;;4.95;2.30;;;;;;;;;;5033469;28;20208;-64
2023/05/31 08:30:53;;;;;;;4.38;2.03;;;;;;;;;;5033946;28;20218;-65
2023/05/31 08:33:20;;;;;;;3.17;1.90;;;;;;;;;;5034437;28;20212;-65
2023/05/31 08:35:47;;;;;;;4.32;1.92;;;;;;;;;;5033911;28;20246;-65
2023/05/31 08:38:15;;;;;;;4.43;1.98;;;;;;;;;;5032219;28;20215;-64
2023/05/31 08:40:43;;;;;;;3.35;2.13;;;;;;;;;;5033278;28;20214;-64
2023/05/31 08:43:15;;;;;;;4.00;2.30;;;;;;;;;;5034079;28;20216;-63
2023/05/31 08:45:43;;;;;;;2.20;1.85;;;;;;;;;;5034704;28;20287;-64
2023/05/31 08:48:11;;;;;;;3.20;2.10;;;;;;;;;;5033434;28;20215;-64
2023/05/31 08:50:39;;;;;;;5.40;2.08;;;;;;;;;;5033298;28;20208;-64
2023/05/31 08:53:07;;;;;;;3.55;2.17;;;;;;;;;;5032972;28;20284;-66
2023/05/31 08:55:36;;;;;;;5.00;2.03;;;;;;;;;;5033764;28;20193;-64
2023/05/31 08:58:04;;;;;;;2.97;1.95;;;;;;;;;;5033354;28;20214;-65
2023/05/31 09:00:32;;;;;;;3.47;2.00;;;;;;;;;;5033145;28;20204;-64
2023/05/31 09:03:00;;;;;;;2.40;2.10;;;;;;;;;;5033557;28;20200;-64
2023/05/31 09:05:27;;;;;;;4.30;2.03;;;;;;;;;;5032291;28;20211;-64
2023/05/31 09:07:54;;;;;;;7.97;2.20;;;;;;;;;;5032740;28;20230;-64
2023/05/31 09:10:21;;;;;;;3.80;2.25;;;;;;;;;;5032884;28;20212;-65
2023/05/31 09:12:50;;;;;;;3.00;2.20;;;;;;;;;;5031914;28;20216;-65
2023/05/31 09:15:17;;;;;;;3.30;2.08;;;;;;;;;;5033499;28;20211;-66
2023/05/31 09:17:45;;;;;;;4.80;2.33;;;;;;;;;;5032767;28;20208;-63
2023/05/31 09:20:12;;;;;;;3.60;2.17;;;;;;;;;;5032972;28;20239;-65
2023/05/31 09:22:40;;;;;;;3.45;2.05;;;;;;;;;;5032234;28;20965;-64
2023/05/31 09:25:07;;;;;;;3.75;1.92;;;;;;;;;;5032973;28;20197;-65
2023/05/31 09:27:36;;;;;;;3.78;2.00;;;;;;;;;;5032892;28;20305;-67
2023/05/31 09:30:08;;;;;;;2.97;2.15;;;;;;;;;;5031948;28;20200;-65
2023/05/31 09:32:35;;;;;;;5.57;2.35;;;;;;;;;;5032678;28;20212;-65
2023/05/31 09:35:12;;;;;;;2.45;1.73;;;;;;;;;;5031903;28;20200;-66
2023/05/31 09:37:44;;;;;;;3.20;2.13;;;;;;;;;;5032808;28;20196;-66
2023/05/31 09:40:13;;;;;;;3.33;2.08;;;;;;;;;;5031490;28;20226;-66
2023/05/31 09:42:48;;;;;;;4.68;1.95;;;;;;;;;;5032930;28;20212;-64
2023/05/31 09:45:16;;;;;;;3.45;2.17;;;;;;;;;;5032986;28;20258;-63
2023/05/31 09:47:44;;;;;;;4.15;1.95;;;;;;;;;;5032343;28;20232;-64
2023/05/31 09:50:11;;;;;;;3.80;1.98;;;;;;;;;;5030976;28;20223;-65
2023/05/31 09:52:38;;;;;;;2.30;2.00;;;;;;;;;;5032734;28;20208;-65
2023/05/31 09:55:09;;;;;;;3.88;2.10;;;;;;;;;;5032263;28;20196;-64
2023/05/31 09:57:41;;;;;;;2.80;2.00;;;;;;;;;;5026935;28;20246;-65
2023/05/31 10:00:15;;;;;;;6.13;2.38;;;;;;;;;;5032107;28;20204;-65
2023/05/31 10:02:44;;;;;;;4.55;2.10;;;;;;;;;;5031772;28;20200;-64
2023/05/31 10:05:12;;;;;;;3.22;2.17;;;;;;;;;;5030667;28;20204;-65
2023/05/31 10:07:39;;;;;;;3.38;2.08;;;;;;;;;;5031986;28;20282;-64
2023/05/31 10:10:07;;;;;;;4.88;2.30;;;;;;;;;;5031926;28;20215;-66
2023/05/31 10:12:36;;;;;;;2.75;1.92;;;;;;;;;;5028002;28;20204;-63
2023/05/31 10:15:05;;;;;;;4.80;1.90;;;;;;;;;;5029359;28;20231;-65
2023/05/31 10:17:35;;;;;;;5.05;2.00;;;;;;;;;;5029151;28;20196;-63
2023/05/31 10:20:06;;;;;;;3.70;2.00;;;;;;;;;;5031785;28;20254;-64
2023/05/31 10:22:35;;;;;;;2.75;1.80;;;;;;;;;;5027880;28;20212;-65
2023/05/31 10:25:04;;;;;;;4.03;2.40;;;;;;;;;;5030421;28;20212;-64
2023/05/31 10:27:38;;;;;;;7.88;2.05;;;;;;;;;;5031387;28;20228;-63
2023/05/31 10:30:06;;;;;;;4.22;2.10;;;;;;;;;;5028534;28;20227;-64
2023/05/31 10:32:34;;;;;;;3.33;2.15;;;;;;;;;;5029025;28;20208;-65
2023/05/31 10:35:04;;;;;;;3.92;1.90;;;;;;;;;;5018230;28;20197;-65
2023/05/31 10:37:31;;;;;;;4.25;2.25;;;;;;;;;;5032072;28;20200;-67
2023/05/31 10:40:05;;;;;;;3.72;2.08;;;;;;;;;;5031896;28;20207;-65
2023/05/31 10:42:37;;;;;;;6.28;1.92;;;;;;;;;;5031035;28;20284;-63
2023/05/31 10:45:09;;;;;;;5.80;2.33;;;;;;;;;;5030897;28;20200;-64
2023/05/31 10:47:39;;;;;;;2.83;2.05;;;;;;;;;;5028311;28;20219;-63
2023/05/31 10:50:08;;;;;;;3.25;1.80;;;;;;;;;;5020322;28;20199;-64
2023/05/31 10:52:35;;;;;;;2.35;1.90;;;;;;;;;;5031988;28;20207;-63
2023/05/31 10:55:18;;;;;;;3.70;2.28;;;;;;;;;;5029867;28;20211;-62
2023/05/31 10:57:45;;;;;;;4.38;2.13;;;;;;;;;;5027013;28;20210;-64
2023/05/31 11:00:13;;;;;;;4.40;2.28;;;;;;;;;;5030940;28;20215;-64
2023/05/31 11:02:47;;;;;;;4.15;1.90;;;;;;;;;;5031610;28;20208;-64
2023/05/31 11:05:22;;;;;;;6.28;2.08;;;;;;;;;;5030952;28;20196;-63
2023/05/31 11:07:49;;;;;;;4.85;2.58;;;;;;;;;;5031775;28;20212;-64
2023/05/31 11:10:26;;;;;;;3.55;1.83;;;;;;;;;;5031714;28;20216;-65
2023/05/31 11:12:53;;;;;;;3.35;1.95;;;;;;;;;;5028697;28;20207;-64
2023/05/31 11:15:20;;;;;;;4.68;2.00;;;;;;;;;;5031248;28;20211;-64
2023/05/31 11:17:55;;;;;;;3.83;1.90;;;;;;;;;;5031549;28;20200;-63
2023/05/31 11:20:27;;;;;;;2.38;1.60;;;;;;;;;;5031527;28;20196;-65
2023/05/31 11:23:13;;;;;;;3.63;1.80;;;;;;;;;;5030756;28;20227;-64
2023/05/31 11:25:40;;;;;;;2.75;2.00;;;;;;;;;;5031080;28;20215;-63
2023/05/31 11:28:07;;;;;;;4.80;1.85;;;;;;;;;;5028621;28;20434;-64
2023/05/31 11:30:43;;;;;;;2.28;1.90;;;;;;;;;;5024278;28;20298;-64
2023/05/31 11:33:16;;;;;;;4.50;2.15;;;;;;;;;;5029882;28;20267;-64
2023/05/31 11:35:45;;;;;;;5.32;2.10;;;;;;;;;;5031439;28;20204;-64
2023/05/31 11:38:12;;;;;;;2.85;1.95;;;;;;;;;;5031438;28;20218;-64
2023/05/31 11:40:39;;;;;;;5.55;1.88;;;;;;;;;;5031505;28;20208;-65
2023/05/31 11:43:07;;;;;;;3.58;2.20;;;;;;;;;;5030766;28;20204;-65
2023/05/31 11:45:35;;;;;;;2.65;2.15;;;;;;;;;;5030687;28;20204;-63
2023/05/31 11:48:08;;;;;;;4.70;1.92;;;;;;;;;;5031001;28;20232;-63
2023/05/31 11:50:36;;;;;;;4.90;2.15;;;;;;;;;;5031775;28;20208;-64
2023/05/31 11:53:05;;;;;;;2.20;2.00;;;;;;;;;;5031261;28;20203;-64
2023/05/31 11:55:35;;;;;;;3.58;2.20;;;;;;;;;;5031256;28;20212;-64
2023/05/31 11:58:02;;;;;;;1.80;1.70;;;;;;;;;;5030911;28;20204;-64
2023/05/31 12:00:31;;;;;;;4.03;2.22;;;;;;;;;;5034524;28;20218;-63
2023/05/31 12:03:02;;;;;;;4.05;1.98;;;;;;;;;;5031016;28;20291;-63
2023/05/31 12:05:30;;;;;;;6.63;2.17;;;;;;;;;;5031906;28;20204;-65
2023/05/31 12:07:57;;;;;;;2.55;2.05;;;;;;;;;;5034858;28;20219;-65
2023/05/31 12:10:28;;;;;;;5.00;2.00;;;;;;;;;;5034065;28;20200;-64
2023/05/31 12:12:55;;;;;;;2.83;2.13;;;;;;;;;;5033750;28;20254;-64
2023/05/31 12:15:22;;;;;;;3.33;1.92;;;;;;;;;;5034477;28;20212;-64
2023/05/31 12:17:50;;;;;;;1.98;1.77;;;;;;;;;;5034809;28;20208;-64
2023/05/31 12:20:17;;;;;;;4.55;1.70;;;;;;;;;;5034234;28;20212;-63
2023/05/31 12:22:44;;;;;;;5.03;2.33;;;;;;;;;;5034124;28;20247;-64
2023/05/31 12:25:11;;;;;;;4.13;1.90;;;;;;;;;;5034542;28;20200;-64
2023/05/31 12:27:40;;;;;;;4.07;1.73;;;;;;;;;;5033558;28;20251;-63
2023/05/31 12:30:08;;;;;;;2.65;1.80;;;;;;;;;;5032070;28;20208;-64
2023/05/31 12:32:35;;;;;;;2.72;1.90;;;;;;;;;;5034626;28;20215;-63
2023/05/31 12:35:06;;;;;;;2.00;1.80;;;;;;;;;;5034400;28;20212;-64
2023/05/31 12:37:36;;;;;;;2.72;2.00;;;;;;;;;;5033483;28;20204;-63
2023/05/31 12:40:10;;;;;;;6.45;1.95;;;;;;;;;;5033858;28;20208;-63
2023/05/31 12:42:37;;;;;;;4.93;1.80;;;;;;;;;;5032456;28;20254;-63
2023/05/31 12:45:06;;;;;;;3.90;1.90;;;;;;;;;;5034361;28;20204;-64
2023/05/31 12:47:34;;;;;;;3.95;2.05;;;;;;;;;;5030848;28;20212;-65
2023/05/31 12:50:05;;;;;;;3.63;1.83;;;;;;;;;;5030475;28;20222;-65
2023/05/31 12:52:34;;;;;;;2.67;1.92;;;;;;;;;;5028211;28;20291;-64
2023/05/31 12:55:02;;;;;;;4.85;1.88;;;;;;;;;;5029444;28;20211;-65
2023/05/31 12:57:31;;;;;;;3.22;2.08;;;;;;;;;;5030362;28;20239;-65
2023/05/31 13:00:02;;;;;;;2.67;1.60;;;;;;;;;;5032383;28;20200;-63
2023/05/31 13:02:31;;;;;;;2.42;1.90;;;;;;;;;;5033905;28;20223;-63
2023/05/31 13:04:58;;;;;;;4.90;1.90;;;;;;;;;;5032413;28;20207;-64
2023/05/31 13:07:25;;;;;;;4.20;2.00;;;;;;;;;;5033577;28;20205;-65
2023/05/31 13:09:52;;;;;;;2.25;1.90;;;;;;;;;;5033290;28;20216;-65
2023/05/31 13:12:21;;;;;;;2.20;1.77;;;;;;;;;;5032811;28;20197;-63
2023/05/31 13:14:48;;;;;;;3.63;2.13;;;;;;;;;;5033022;28;20303;-63
2023/05/31 13:17:15;;;;;;;2.20;1.95;;;;;;;;;;5033022;28;20212;-65
2023/05/31 13:19:44;;;;;;;3.17;1.92;;;;;;;;;;5033263;28;20200;-63
2023/05/31 13:22:13;;;;;;;2.45;1.80;;;;;;;;;;5032137;28;20204;-65
2023/05/31 13:24:40;;;;;;;2.42;1.98;;;;;;;;;;5032464;28;20239;-65
2023/05/31 13:27:07;;;;;;;1.98;1.75;;;;;;;;;;5033043;28;20201;-65
2023/05/31 13:29:34;;;;;;;2.00;1.65;;;;;;;;;;5032727;28;20220;-64
2023/05/31 13:32:02;;;;;;;3.17;1.88;;;;;;;;;;5030123;28;20211;-63
2023/05/31 13:34:29;;;;;;;4.18;1.83;;;;;;;;;;5032949;28;20207;-64
2023/05/31 13:36:57;;;;;;;4.18;1.92;;;;;;;;;;5032636;28;20216;-63
2023/05/31 13:39:25;;;;;;;1.70;1.60;;;;;;;;;;5030809;28;20250;-63
2023/05/31 13:41:52;;;;;;;2.05;1.80;;;;;;;;;;5032691;28;20208;-62
2023/05/31 13:44:20;;;;;;;3.60;1.80;;;;;;;;;;5032478;28;20200;-63
2023/05/31 13:46:47;;;;;;;1.95;1.70;;;;;;;;;;5032659;28;20220;-64
2023/05/31 13:49:15;;;;;;;2.75;1.83;;;;;;;;;;5032836;28;20212;-63
2023/05/31 13:51:42;;;;;;;5.93;2.03;;;;;;;;;;5032481;28;20204;-64
2023/05/31 13:54:11;;;;;;;2.72;1.70;;;;;;;;;;5032647;28;20196;-64
2023/05/31 13:56:38;;;;;;;1.67;1.45;;;;;;;;;;5032827;28;20207;-64
2023/05/31 13:59:05;;;;;;;2.10;1.90;;;;;;;;;;5032424;28;20211;-63
2023/05/31 14:01:32;;;;;;;5.82;1.73;;;;;;;;;;5032483;28;20208;-64
2023/05/31 14:03:59;;;;;;;2.60;1.80;;;;;;;;;;5032354;28;20208;-64
2023/05/31 14:06:27;;;;;;;4.63;1.60;;;;;;;;;;5028737;28;20238;-65
2023/05/31 14:08:55;;;;;;;4.75;1.95;;;;;;;;;;5032412;28;20287;-63
2023/05/31 14:11:26;;;;;;;5.13;1.80;;;;;;;;;;5032090;28;20220;-64
2023/05/31 14:13:53;;;;;;;4.40;1.60;;;;;;;;;;5032012;28;20208;-63
2023/05/31 14:16:21;;;;;;;5.90;1.60;;;;;;;;;;5032373;28;20211;-64
2023/05/31 14:18:48;;;;;;;4.95;1.80;;;;;;;;;;5032275;28;20203;-63
2023/05/31 14:21:15;;;;;;;3.30;1.48;;;;;;;;;;5031079;28;20208;-64
2023/05/31 14:23:42;;;;;;;3.20;1.60;;;;;;;;;;5032452;28;20243;-66
2023/05/31 14:26:09;;;;;;;2.63;1.63;;;;;;;;;;5033012;28;20223;-63
2023/05/31 14:28:38;;;;;;;2.20;1.58;;;;;;;;;;5029470;28;20231;-64
2023/05/31 14:31:05;;;;;;;2.47;1.60;;;;;;;;;;5031805;28;20200;-65
2023/05/31 14:33:32;;;;;;;3.13;1.70;;;;;;;;;;5032154;28;20230;-64
2023/05/31 14:36:00;;;;;;;5.97;1.70;;;;;;;;;;5031995;28;20215;-62
2023/05/31 14:38:27;;;;;;;2.97;1.52;;;;;;;;;;5030160;28;20208;-63
2023/05/31 14:40:55;;;;;;;1.73;1.63;;;;;;;;;;5032095;28;20211;-63
2023/05/31 14:43:22;;;;;;;2.58;1.55;;;;;;;;;;5028570;28;20207;-62
2023/05/31 14:45:51;;;;;;;2.47;1.60;;;;;;;;;;5029884;28;20200;-65
2023/05/31 14:48:18;;;;;;;2.17;1.50;;;;;;;;;;5028213;28;20299;-63